createdAt,value
2017-06-11T00:00:33.761Z,16
2017-06-11T00:01:46.537Z,16
2017-06-11T00:02:59.313Z,12
2017-06-11T00:04:11.608Z,12
2017-06-11T00:05:24.384Z,12
2017-06-11T00:06:37.162Z,12
2017-06-11T00:07:49.457Z,12
2017-06-11T00:09:02.431Z,12
2017-06-11T00:10:14.723Z,12
2017-06-11T00:11:27.497Z,12
2017-06-11T00:12:40.274Z,12
2017-06-11T00:13:53.047Z,12
2017-06-11T00:15:05.343Z,12
2017-06-11T00:16:18.116Z,12
2017-06-11T00:17:30.412Z,12
2017-06-11T00:18:42.707Z,12
2017-06-11T00:19:55.484Z,12
2017-06-11T00:21:08.259Z,12
2017-06-11T00:22:21.031Z,12
2017-06-11T00:23:33.809Z,12
2017-06-11T00:24:46.309Z,12
2017-06-11T00:25:59.095Z,4
2017-06-11T00:27:11.418Z,4
2017-06-11T00:28:24.190Z,12
2017-06-11T00:29:36.571Z,16
2017-06-11T00:30:47.999Z,12
2017-06-11T00:32:00.889Z,16
2017-06-11T00:33:13.787Z,12
2017-06-11T00:34:26.681Z,4
2017-06-11T00:35:39.285Z,12
2017-06-11T00:36:52.182Z,12
2017-06-11T00:38:05.077Z,12
2017-06-11T00:39:17.490Z,12
2017-06-11T00:40:29.892Z,12
2017-06-11T00:41:42.796Z,12
2017-06-11T00:42:55.691Z,12
2017-06-11T00:44:08.593Z,12
2017-06-11T00:45:21.496Z,12
2017-06-11T00:46:34.390Z,12
2017-06-11T00:47:46.797Z,12
2017-06-11T00:48:59.699Z,12
2017-06-11T00:50:12.588Z,16
2017-06-11T00:51:25.484Z,16
2017-06-11T00:52:38.607Z,12
2017-06-11T00:53:51.017Z,12
2017-06-11T00:55:03.910Z,12
2017-06-11T00:56:16.804Z,4
2017-06-11T00:57:29.708Z,4
2017-06-11T00:58:42.118Z,4
2017-06-11T00:59:54.032Z,16
2017-06-11T01:01:06.437Z,12
2017-06-11T01:02:18.851Z,12
2017-06-11T01:03:31.750Z,4
2017-06-11T01:04:44.158Z,4
2017-06-11T01:05:57.051Z,4
2017-06-11T01:07:09.479Z,12
2017-06-11T01:08:22.089Z,12
2017-06-11T01:09:34.987Z,12
2017-06-11T01:10:47.900Z,4
2017-06-11T01:11:59.815Z,12
2017-06-11T01:13:12.721Z,12
2017-06-11T01:14:25.139Z,12
2017-06-11T01:15:38.057Z,12
2017-06-11T01:16:50.481Z,12
2017-06-11T01:18:02.907Z,12
2017-06-11T01:19:16.023Z,12
2017-06-11T01:20:28.934Z,12
2017-06-11T01:21:41.850Z,12
2017-06-11T01:22:54.768Z,12
2017-06-11T01:24:07.194Z,16
2017-06-11T01:25:20.307Z,12
2017-06-11T01:26:33.230Z,12
2017-06-11T01:27:46.145Z,12
2017-06-11T01:28:59.062Z,12
2017-06-11T01:30:11.484Z,12
2017-06-11T01:31:24.428Z,12
2017-06-11T01:32:37.344Z,12
2017-06-11T01:33:49.771Z,12
2017-06-11T01:35:02.686Z,4
2017-06-11T01:36:15.601Z,12
2017-06-11T01:37:28.513Z,16
2017-06-11T01:38:41.426Z,12
2017-06-11T01:39:54.339Z,12
2017-06-11T01:41:07.249Z,12
2017-06-11T01:42:19.674Z,12
2017-06-11T01:43:32.586Z,12
2017-06-11T01:44:45.502Z,12
2017-06-11T01:45:57.924Z,12
2017-06-11T01:47:11.042Z,12
2017-06-11T01:48:23.953Z,12
2017-06-11T01:49:36.922Z,12
2017-06-11T01:50:49.916Z,12
2017-06-11T01:52:02.612Z,12
2017-06-11T01:53:15.109Z,8
2017-06-11T01:54:27.110Z,12
2017-06-11T01:55:40.108Z,12
2017-06-11T01:56:53.107Z,12
2017-06-11T01:58:06.295Z,12
2017-06-11T01:59:19.286Z,12
2017-06-11T02:00:32.280Z,4
2017-06-11T02:01:44.286Z,4
2017-06-11T02:02:57.278Z,4
2017-06-11T02:04:10.270Z,4
2017-06-11T02:05:23.261Z,12
2017-06-11T02:06:35.765Z,16
2017-06-11T02:07:48.790Z,16
2017-06-11T02:09:01.781Z,12
2017-06-11T02:10:14.774Z,12
2017-06-11T02:11:27.765Z,12
2017-06-11T02:12:40.760Z,12
2017-06-11T02:13:53.751Z,12
2017-06-11T02:15:06.246Z,12
2017-06-11T02:16:19.243Z,12
2017-06-11T02:17:32.235Z,4
2017-06-11T02:18:45.229Z,16
2017-06-11T02:19:57.930Z,12
2017-06-11T02:21:10.924Z,12
2017-06-11T02:22:23.869Z,12
2017-06-11T02:23:36.820Z,12
2017-06-11T02:24:49.937Z,12
2017-06-11T02:26:02.358Z,4
2017-06-11T02:27:15.270Z,4
2017-06-11T02:28:28.184Z,16
2017-06-11T02:29:40.605Z,16
2017-06-11T02:30:53.512Z,12
2017-06-11T02:32:06.425Z,12
2017-06-11T02:33:18.845Z,12
2017-06-11T02:34:31.271Z,12
2017-06-11T02:35:43.896Z,12
2017-06-11T02:36:56.815Z,12
2017-06-11T02:38:09.237Z,12
2017-06-11T02:39:22.152Z,4
2017-06-11T02:40:35.105Z,16
2017-06-11T02:41:47.238Z,16
2017-06-11T02:43:00.153Z,12
2017-06-11T02:44:12.564Z,12
2017-06-11T02:45:25.455Z,4
2017-06-11T02:46:38.356Z,4
2017-06-11T02:47:50.277Z,4
2017-06-11T02:49:03.180Z,16
2017-06-11T02:50:16.069Z,12
2017-06-11T02:51:28.960Z,12
2017-06-11T02:52:41.566Z,4
2017-06-11T02:53:54.469Z,12
2017-06-11T02:55:07.362Z,12
2017-06-11T02:56:19.769Z,12
2017-06-11T02:57:32.863Z,12
2017-06-11T02:58:45.761Z,12
2017-06-11T02:59:58.166Z,12
2017-06-11T03:01:11.059Z,12
2017-06-11T03:02:23.461Z,12
2017-06-11T03:03:36.350Z,12
2017-06-11T03:04:48.754Z,12
2017-06-11T03:06:01.160Z,12
2017-06-11T03:07:14.049Z,12
2017-06-11T03:08:26.449Z,12
2017-06-11T03:09:39.342Z,12
2017-06-11T03:10:52.267Z,12
2017-06-11T03:12:05.163Z,12
2017-06-11T03:13:18.061Z,12
2017-06-11T03:14:31.161Z,12
2017-06-11T03:15:44.053Z,12
2017-06-11T03:16:56.461Z,12
2017-06-11T03:18:09.349Z,12
2017-06-11T03:19:21.463Z,12
2017-06-11T03:20:34.355Z,12
2017-06-11T03:21:46.764Z,12
2017-06-11T03:22:59.657Z,12
2017-06-11T03:24:12.063Z,4
2017-06-11T03:25:25.160Z,16
2017-06-11T03:26:38.055Z,12
2017-06-11T03:27:50.970Z,12
2017-06-11T03:29:03.875Z,12
2017-06-11T03:30:16.298Z,12
2017-06-11T03:31:29.209Z,12
2017-06-11T03:32:42.122Z,12
2017-06-11T03:33:54.545Z,4
2017-06-11T03:35:06.998Z,16
2017-06-11T03:36:20.108Z,12
2017-06-11T03:37:33.017Z,12
2017-06-11T03:38:45.928Z,12
2017-06-11T03:39:58.846Z,12
2017-06-11T03:41:11.467Z,12
2017-06-11T03:42:24.379Z,12
2017-06-11T03:43:37.290Z,8
2017-06-11T03:44:49.712Z,12
2017-06-11T03:46:02.623Z,12
2017-06-11T03:47:15.737Z,4
2017-06-11T03:48:28.161Z,12
2017-06-11T03:49:40.580Z,12
2017-06-11T03:50:53.489Z,12
2017-06-11T03:52:06.405Z,12
2017-06-11T03:53:19.316Z,12
2017-06-11T03:54:31.735Z,12
2017-06-11T03:55:44.651Z,12
2017-06-11T03:56:57.563Z,12
2017-06-11T03:58:10.673Z,4
2017-06-11T03:59:23.587Z,12
2017-06-11T04:00:36.008Z,12
2017-06-11T04:01:48.434Z,12
2017-06-11T04:03:01.439Z,12
2017-06-11T04:04:13.992Z,12
2017-06-11T04:05:26.548Z,12
2017-06-11T04:06:39.104Z,12
2017-06-11T04:07:51.657Z,12
2017-06-11T04:09:04.707Z,16
2017-06-11T04:10:17.759Z,12
2017-06-11T04:11:30.815Z,8
2017-06-11T04:12:43.371Z,12
2017-06-11T04:13:56.325Z,12
2017-06-11T04:15:08.750Z,4
2017-06-11T04:16:21.663Z,12
2017-06-11T04:17:34.094Z,12
2017-06-11T04:18:47.005Z,12
2017-06-11T04:20:00.134Z,12
2017-06-11T04:21:13.048Z,12
2017-06-11T04:22:25.965Z,12
2017-06-11T04:23:38.878Z,12
2017-06-11T04:24:51.792Z,12
2017-06-11T04:26:04.218Z,16
2017-06-11T04:27:17.167Z,4
2017-06-11T04:28:30.081Z,4
2017-06-11T04:29:43.001Z,12
2017-06-11T04:30:56.115Z,12
2017-06-11T04:32:09.033Z,4
2017-06-11T04:33:21.944Z,4
2017-06-11T04:34:33.878Z,12
2017-06-11T04:36:00.808Z,12
2017-06-11T04:37:13.663Z,12
2017-06-11T04:38:26.521Z,12
2017-06-11T04:39:39.376Z,12
2017-06-11T04:40:51.454Z,12
2017-06-11T04:42:03.825Z,12
2017-06-11T04:43:16.678Z,12
2017-06-11T04:44:29.543Z,12
2017-06-11T04:45:42.397Z,12
2017-06-11T04:46:55.254Z,12
2017-06-11T04:48:08.112Z,12
2017-06-11T04:49:20.965Z,12
2017-06-11T04:50:33.333Z,4
2017-06-11T04:51:45.725Z,4
2017-06-11T04:52:58.575Z,12
2017-06-11T04:54:10.456Z,12
2017-06-11T04:55:23.312Z,12
2017-06-11T04:56:36.178Z,12
2017-06-11T04:57:49.029Z,12
2017-06-11T04:59:01.483Z,12
2017-06-11T05:00:14.459Z,12
2017-06-11T05:01:27.437Z,12
2017-06-11T05:02:54.448Z,12
2017-06-11T05:04:06.931Z,12
2017-06-11T05:05:19.407Z,12
2017-06-11T05:06:31.885Z,4
2017-06-11T05:07:44.860Z,4
2017-06-11T05:08:57.833Z,4
2017-06-11T05:10:10.813Z,12
2017-06-11T05:11:23.792Z,16
2017-06-11T05:12:37.566Z,12
2017-06-11T05:13:50.048Z,12
2017-06-11T05:15:03.023Z,12
2017-06-11T05:16:15.997Z,12
2017-06-11T05:17:28.970Z,12
2017-06-11T05:18:42.020Z,12
2017-06-11T05:19:54.513Z,12
2017-06-11T05:21:07.492Z,12
2017-06-11T05:22:20.467Z,12
2017-06-11T05:23:32.948Z,4
2017-06-11T05:24:46.123Z,4
2017-06-11T05:25:58.107Z,4
2017-06-11T05:27:11.087Z,16
2017-06-11T05:28:23.073Z,12
2017-06-11T05:29:36.248Z,12
2017-06-11T05:30:48.730Z,12
2017-06-11T05:32:01.704Z,12
2017-06-11T05:33:14.185Z,4
2017-06-11T05:34:27.166Z,4
2017-06-11T05:35:40.140Z,4
2017-06-11T05:36:52.622Z,12
2017-06-11T05:38:05.598Z,12
2017-06-11T05:39:18.582Z,12
2017-06-11T05:40:31.763Z,12
2017-06-11T05:41:44.738Z,12
2017-06-11T05:42:57.653Z,8
2017-06-11T05:44:10.551Z,12
2017-06-11T05:45:23.446Z,12
2017-06-11T05:46:36.332Z,12
2017-06-11T05:47:49.221Z,12
2017-06-11T05:49:01.621Z,12
2017-06-11T05:50:14.518Z,12
2017-06-11T05:51:27.614Z,12
2017-06-11T05:52:40.505Z,12
2017-06-11T05:53:52.904Z,12
2017-06-11T05:55:05.306Z,12
2017-06-11T05:56:18.201Z,12
2017-06-11T05:57:31.289Z,12
2017-06-11T05:58:44.184Z,12
2017-06-11T05:59:57.071Z,12
2017-06-11T06:01:09.968Z,12
2017-06-11T06:02:23.062Z,12
2017-06-11T06:03:35.955Z,12
2017-06-11T06:04:48.845Z,12
2017-06-11T06:06:01.732Z,12
2017-06-11T06:07:14.139Z,12
2017-06-11T06:08:26.742Z,12
2017-06-11T06:09:39.146Z,12
2017-06-11T06:10:51.550Z,12
2017-06-11T06:12:04.438Z,12
2017-06-11T06:13:17.535Z,12
2017-06-11T06:14:30.426Z,12
2017-06-11T06:15:43.314Z,12
2017-06-11T06:16:56.204Z,12
2017-06-11T06:18:09.100Z,12
2017-06-11T06:19:21.985Z,12
2017-06-11T06:20:34.874Z,12
2017-06-11T06:21:47.765Z,12
2017-06-11T06:23:00.165Z,12
2017-06-11T06:24:13.064Z,12
2017-06-11T06:25:25.952Z,12
2017-06-11T06:26:38.862Z,12
2017-06-11T06:27:51.264Z,12
2017-06-11T06:29:04.068Z,12
2017-06-11T06:30:16.560Z,12
2017-06-11T06:31:28.851Z,12
2017-06-11T06:32:41.637Z,12
2017-06-11T06:33:53.961Z,12
2017-06-11T06:35:06.938Z,12
2017-06-11T06:36:19.712Z,12
2017-06-11T06:37:32.490Z,12
2017-06-11T06:38:43.816Z,12
2017-06-11T06:39:56.590Z,12
2017-06-11T06:41:08.880Z,12
2017-06-11T06:42:21.661Z,12
2017-06-11T06:43:34.431Z,12
2017-06-11T06:44:46.241Z,12
2017-06-11T06:45:58.735Z,12
2017-06-11T06:47:11.506Z,12
2017-06-11T06:48:24.276Z,12
2017-06-11T06:49:37.050Z,12
2017-06-11T06:50:49.819Z,12
2017-06-11T06:52:02.313Z,12
2017-06-11T06:53:13.645Z,12
2017-06-11T06:54:26.416Z,12
2017-06-11T06:55:38.705Z,4
2017-06-11T06:56:51.195Z,16
2017-06-11T06:58:03.007Z,12
2017-06-11T06:59:15.777Z,12
2017-06-11T07:00:28.065Z,12
2017-06-11T07:01:40.384Z,12
2017-06-11T07:02:52.675Z,12
2017-06-11T07:04:05.457Z,12
2017-06-11T07:05:17.749Z,12
2017-06-11T07:06:30.076Z,12
2017-06-11T07:07:42.371Z,12
2017-06-11T07:08:54.860Z,12
2017-06-11T07:10:07.632Z,12
2017-06-11T07:11:19.921Z,12
2017-06-11T07:12:32.692Z,12
2017-06-11T07:13:45.462Z,12
2017-06-11T07:14:58.364Z,12
2017-06-11T07:16:10.798Z,12
2017-06-11T07:17:23.710Z,12
2017-06-11T07:18:36.129Z,12
2017-06-11T07:19:49.238Z,12
2017-06-11T07:21:02.149Z,12
2017-06-11T07:22:14.570Z,12
2017-06-11T07:23:27.482Z,12
2017-06-11T07:24:40.593Z,4
2017-06-11T07:25:53.016Z,16
2017-06-11T07:27:05.926Z,16
2017-06-11T07:28:18.845Z,16
2017-06-11T07:29:31.273Z,12
2017-06-11T07:30:43.207Z,12
2017-06-11T07:31:56.130Z,4
2017-06-11T07:33:09.047Z,4
2017-06-11T07:34:21.465Z,4
2017-06-11T07:35:34.370Z,16
2017-06-11T07:36:47.286Z,16
2017-06-11T07:38:00.198Z,12
2017-06-11T07:39:13.109Z,12
2017-06-11T07:40:26.016Z,12
2017-06-11T07:41:37.974Z,12
2017-06-11T07:42:50.905Z,12
2017-06-11T07:44:02.835Z,12
2017-06-11T07:45:15.745Z,12
2017-06-11T07:46:28.854Z,12
2017-06-11T07:47:41.274Z,12
2017-06-11T07:48:54.189Z,12
2017-06-11T07:50:07.096Z,12
2017-06-11T07:51:20.004Z,12
2017-06-11T07:52:32.915Z,12
2017-06-11T07:53:45.334Z,16
2017-06-11T07:54:58.244Z,12
2017-06-11T07:56:11.264Z,12
2017-06-11T07:57:24.517Z,12
2017-06-11T07:58:37.573Z,12
2017-06-11T07:59:50.525Z,12
2017-06-11T08:01:02.955Z,4
2017-06-11T08:02:15.881Z,16
2017-06-11T08:03:28.806Z,16
2017-06-11T08:04:41.246Z,12
2017-06-11T08:05:53.674Z,12
2017-06-11T08:07:06.103Z,4
2017-06-11T08:08:19.019Z,12
2017-06-11T08:09:31.934Z,12
2017-06-11T08:10:44.361Z,12
2017-06-11T08:11:57.285Z,12
2017-06-11T08:13:10.202Z,12
2017-06-11T08:14:23.116Z,12
2017-06-11T08:15:36.031Z,12
2017-06-11T08:16:48.966Z,12
2017-06-11T08:18:01.886Z,12
2017-06-11T08:19:14.510Z,12
2017-06-11T08:20:26.938Z,12
2017-06-11T08:21:39.861Z,12
2017-06-11T08:22:52.786Z,12
2017-06-11T08:24:05.734Z,12
2017-06-11T08:25:17.874Z,12
2017-06-11T08:26:30.799Z,12
2017-06-11T08:27:43.722Z,16
2017-06-11T08:28:56.635Z,12
2017-06-11T08:30:09.552Z,12
2017-06-11T08:31:22.471Z,12
2017-06-11T08:32:35.395Z,12
2017-06-11T08:33:48.320Z,12
2017-06-11T08:35:01.235Z,12
2017-06-11T08:36:14.358Z,12
2017-06-11T08:37:27.278Z,12
2017-06-11T08:38:40.199Z,12
2017-06-11T08:39:52.631Z,12
2017-06-11T08:41:05.548Z,12
2017-06-11T08:42:18.501Z,12
2017-06-11T08:43:30.921Z,12
2017-06-11T08:44:43.943Z,12
2017-06-11T08:45:56.996Z,12
2017-06-11T08:47:10.046Z,12
2017-06-11T08:48:22.605Z,12
2017-06-11T08:49:35.179Z,12
2017-06-11T08:50:47.732Z,12
2017-06-11T08:52:00.980Z,12
2017-06-11T08:53:14.052Z,12
2017-06-11T08:54:27.105Z,12
2017-06-11T08:55:40.192Z,12
2017-06-11T08:56:53.242Z,12
2017-06-11T08:58:06.295Z,12
2017-06-11T08:59:19.347Z,12
2017-06-11T09:00:31.930Z,12
2017-06-11T09:01:43.988Z,12
2017-06-11T09:02:56.947Z,12
2017-06-11T09:04:09.858Z,12
2017-06-11T09:05:22.277Z,12
2017-06-11T09:06:35.187Z,12
2017-06-11T09:07:48.096Z,12
2017-06-11T09:09:01.209Z,12
2017-06-11T09:10:14.137Z,12
2017-06-11T09:11:27.047Z,8
2017-06-11T09:12:39.955Z,4
2017-06-11T09:13:53.063Z,4
2017-06-11T09:15:05.968Z,4
2017-06-11T09:16:18.877Z,16
2017-06-11T09:17:31.789Z,12
2017-06-11T09:18:44.907Z,12
2017-06-11T09:19:57.329Z,12
2017-06-11T09:21:10.251Z,12
2017-06-11T09:22:23.163Z,12
2017-06-11T09:23:36.073Z,12
2017-06-11T09:24:48.982Z,4
2017-06-11T09:26:01.408Z,8
2017-06-11T09:27:14.323Z,12
2017-06-11T09:28:27.236Z,12
2017-06-11T09:29:40.045Z,12
2017-06-11T09:30:53.015Z,12
2017-06-11T09:32:05.305Z,12
2017-06-11T09:33:18.079Z,16
2017-06-11T09:34:30.854Z,12
2017-06-11T09:35:43.347Z,16
2017-06-11T09:36:56.121Z,12
2017-06-11T09:38:08.411Z,16
2017-06-11T09:39:21.179Z,20
2017-06-11T09:40:33.950Z,20
2017-06-11T09:41:46.924Z,8
2017-06-11T09:42:59.213Z,12
2017-06-11T09:44:11.990Z,12
2017-06-11T09:45:24.762Z,16
2017-06-11T09:46:37.054Z,20
2017-06-11T09:47:49.343Z,20
2017-06-11T09:49:01.635Z,24
2017-06-11T09:50:13.939Z,28
2017-06-11T09:51:26.708Z,28
2017-06-11T09:52:39.477Z,32
2017-06-11T09:53:51.765Z,36
2017-06-11T09:55:04.537Z,40
2017-06-11T09:56:16.828Z,44
2017-06-11T09:57:29.802Z,44
2017-06-11T09:58:42.095Z,44
2017-06-11T09:59:54.869Z,48
2017-06-11T10:01:07.161Z,52
2017-06-11T10:02:19.482Z,56
2017-06-11T10:03:32.455Z,56
2017-06-11T10:04:45.231Z,60
2017-06-11T10:05:56.559Z,64
2017-06-11T10:07:09.329Z,68
2017-06-11T10:08:22.100Z,68
2017-06-11T10:09:33.912Z,72
2017-06-11T10:10:45.730Z,76
2017-06-11T10:11:58.501Z,76
2017-06-11T10:13:11.272Z,80
2017-06-11T10:14:24.285Z,80
2017-06-11T10:15:37.069Z,88
2017-06-11T10:16:49.852Z,88
2017-06-11T10:18:02.621Z,92
2017-06-11T10:19:15.600Z,92
2017-06-11T10:20:28.375Z,96
2017-06-11T10:21:41.149Z,96
2017-06-11T10:22:53.929Z,100
2017-06-11T10:24:06.225Z,100
2017-06-11T10:25:19.207Z,104
2017-06-11T10:26:31.987Z,108
2017-06-11T10:27:44.760Z,108
2017-06-11T10:28:56.088Z,108
2017-06-11T10:30:08.866Z,108
2017-06-11T10:31:21.166Z,108
2017-06-11T10:32:33.935Z,116
2017-06-11T10:33:46.226Z,116
2017-06-11T10:34:59.000Z,116
2017-06-11T10:36:11.018Z,116
2017-06-11T10:37:22.830Z,120
2017-06-11T10:38:35.614Z,120
2017-06-11T10:39:48.394Z,124
2017-06-11T10:41:01.372Z,128
2017-06-11T10:42:13.671Z,128
2017-06-11T10:43:25.965Z,132
2017-06-11T10:44:38.269Z,132
2017-06-11T10:45:51.057Z,132
2017-06-11T10:47:03.552Z,132
2017-06-11T10:48:16.328Z,136
2017-06-11T10:49:29.104Z,136
2017-06-11T10:50:41.408Z,136
2017-06-11T10:51:53.908Z,136
2017-06-11T10:53:06.691Z,140
2017-06-11T10:54:19.466Z,140
2017-06-11T10:55:32.249Z,144
2017-06-11T10:56:45.032Z,144
2017-06-11T10:57:57.827Z,148
2017-06-11T10:59:10.715Z,148
2017-06-11T11:00:23.626Z,148
2017-06-11T11:01:36.536Z,152
2017-06-11T11:02:49.445Z,152
2017-06-11T11:04:02.355Z,156
2017-06-11T11:05:15.273Z,156
2017-06-11T11:06:27.693Z,156
2017-06-11T11:07:39.623Z,156
2017-06-11T11:08:52.240Z,160
2017-06-11T11:10:05.148Z,160
2017-06-11T11:11:17.581Z,164
2017-06-11T11:12:30.493Z,164
2017-06-11T11:13:43.602Z,168
2017-06-11T11:14:56.513Z,172
2017-06-11T11:16:09.421Z,172
2017-06-11T11:17:22.333Z,176
2017-06-11T11:18:35.246Z,180
2017-06-11T11:19:47.668Z,180
2017-06-11T11:21:00.581Z,184
2017-06-11T11:22:13.491Z,188
2017-06-11T11:23:26.406Z,188
2017-06-11T11:24:39.030Z,192
2017-06-11T11:25:51.936Z,200
2017-06-11T11:27:03.859Z,200
2017-06-11T11:28:16.770Z,212
2017-06-11T11:29:29.185Z,236
2017-06-11T11:30:42.100Z,296
2017-06-11T11:31:55.011Z,432
2017-06-11T11:33:07.925Z,648
2017-06-11T11:34:19.854Z,824
2017-06-11T11:35:32.967Z,964
2017-06-11T11:36:45.878Z,1088
2017-06-11T11:37:58.299Z,1176
2017-06-11T11:39:11.205Z,1256
2017-06-11T11:40:23.621Z,1296
2017-06-11T11:41:36.539Z,1348
2017-06-11T11:42:48.959Z,1384
2017-06-11T11:44:01.771Z,1416
2017-06-11T11:45:14.065Z,1432
2017-06-11T11:46:27.042Z,1448
2017-06-11T11:47:39.328Z,1472
2017-06-11T11:48:52.116Z,1488
2017-06-11T11:50:04.899Z,1496
2017-06-11T11:51:17.198Z,1516
2017-06-11T11:52:29.496Z,1536
2017-06-11T11:53:42.267Z,1556
2017-06-11T11:54:55.042Z,1568
2017-06-11T11:56:07.828Z,1580
2017-06-11T11:57:20.603Z,1588
2017-06-11T11:58:33.370Z,1608
2017-06-11T11:59:45.664Z,1620
2017-06-11T12:00:57.478Z,1628
2017-06-11T12:02:09.777Z,1660
2017-06-11T12:03:22.302Z,1704
2017-06-11T12:04:35.097Z,1696
2017-06-11T12:05:47.877Z,1700
2017-06-11T12:07:00.657Z,1720
2017-06-11T12:08:13.443Z,1744
2017-06-11T12:09:26.216Z,1752
2017-06-11T12:10:39.008Z,1760
2017-06-11T12:11:51.786Z,1776
2017-06-11T12:13:04.563Z,1804
2017-06-11T12:14:17.535Z,1812
2017-06-11T12:15:30.304Z,1812
2017-06-11T12:16:43.088Z,1828
2017-06-11T12:17:55.869Z,1832
2017-06-11T12:19:08.643Z,1840
2017-06-11T12:20:21.421Z,1864
2017-06-11T12:21:33.719Z,1860
2017-06-11T12:22:46.510Z,1872
2017-06-11T12:23:59.291Z,1896
2017-06-11T12:25:12.067Z,1912
2017-06-11T12:26:24.869Z,1920
2017-06-11T12:27:37.651Z,1936
2017-06-11T12:28:50.461Z,1944
2017-06-11T12:30:02.865Z,1944
2017-06-11T12:31:14.781Z,1936
2017-06-11T12:32:27.673Z,1920
2017-06-11T12:33:40.561Z,1928
2017-06-11T12:34:53.465Z,1916
2017-06-11T12:36:06.556Z,1892
2017-06-11T12:37:18.963Z,1884
2017-06-11T12:38:31.373Z,1872
2017-06-11T12:39:44.265Z,1852
2017-06-11T12:40:56.862Z,1844
2017-06-11T12:42:09.746Z,1824
2017-06-11T12:43:22.643Z,1800
2017-06-11T12:44:35.539Z,1780
2017-06-11T12:45:48.439Z,1764
2017-06-11T12:47:01.330Z,1756
2017-06-11T12:48:14.224Z,1740
2017-06-11T12:49:27.134Z,1720
2017-06-11T12:50:40.030Z,1688
2017-06-11T12:51:52.925Z,1680
2017-06-11T12:53:05.818Z,1680
2017-06-11T12:54:18.713Z,1660
2017-06-11T12:55:31.605Z,1640
2017-06-11T12:56:44.499Z,1624
2017-06-11T12:57:57.391Z,1608
2017-06-11T12:59:10.296Z,1576
2017-06-11T13:00:22.707Z,1552
2017-06-11T13:01:35.597Z,1536
2017-06-11T13:02:47.999Z,1520
2017-06-11T13:04:00.895Z,1488
2017-06-11T13:05:13.792Z,1452
2017-06-11T13:06:26.689Z,1408
2017-06-11T13:07:39.089Z,1376
2017-06-11T13:08:51.982Z,1324
2017-06-11T13:10:04.875Z,1268
2017-06-11T13:11:17.770Z,1232
2017-06-11T13:12:30.671Z,1192
2017-06-11T13:13:43.568Z,1164
2017-06-11T13:14:56.464Z,1152
2017-06-11T13:16:08.887Z,1136
2017-06-11T13:17:21.777Z,1116
2017-06-11T13:18:34.673Z,1108
2017-06-11T13:19:47.077Z,1092
2017-06-11T13:20:59.483Z,1076
2017-06-11T13:22:12.378Z,1064
2017-06-11T13:23:25.273Z,1052
2017-06-11T13:24:38.363Z,1040
2017-06-11T13:25:51.279Z,1024
2017-06-11T13:27:03.684Z,1016
2017-06-11T13:28:16.575Z,1004
2017-06-11T13:29:29.466Z,988
2017-06-11T13:30:41.867Z,992
2017-06-11T13:31:54.759Z,984
2017-06-11T13:33:06.670Z,988
2017-06-11T13:34:19.558Z,988
2017-06-11T13:35:32.162Z,988
2017-06-11T13:36:45.055Z,992
2017-06-11T13:37:56.966Z,988
2017-06-11T13:39:09.364Z,976
2017-06-11T13:40:21.764Z,972
2017-06-11T13:41:34.860Z,976
2017-06-11T13:42:47.747Z,976
2017-06-11T13:44:00.637Z,976
2017-06-11T13:45:13.533Z,980
2017-06-11T13:46:26.426Z,984
2017-06-11T13:47:39.319Z,980
2017-06-11T13:48:52.212Z,984
2017-06-11T13:50:04.617Z,988
2017-06-11T13:51:17.511Z,1000
2017-06-11T13:52:30.109Z,1008
2017-06-11T13:53:43.022Z,1012
2017-06-11T13:54:55.915Z,1020
2017-06-11T13:56:08.816Z,1032
2017-06-11T13:57:21.709Z,1032
2017-06-11T13:58:34.114Z,1036
2017-06-11T13:59:47.022Z,1036
2017-06-11T14:00:58.952Z,1040
2017-06-11T14:02:11.868Z,1032
2017-06-11T14:03:24.799Z,1040
2017-06-11T14:04:37.718Z,1044
2017-06-11T14:05:50.141Z,1048
2017-06-11T14:07:03.052Z,1052
2017-06-11T14:08:15.677Z,1052
2017-06-11T14:09:28.591Z,1056
2017-06-11T14:10:41.503Z,1064
2017-06-11T14:11:54.413Z,1072
2017-06-11T14:13:07.326Z,1092
2017-06-11T14:14:20.243Z,1100
2017-06-11T14:15:33.182Z,1120
2017-06-11T14:16:46.095Z,1120
2017-06-11T14:17:59.007Z,1132
2017-06-11T14:19:11.917Z,1140
2017-06-11T14:20:24.830Z,1152
2017-06-11T14:21:37.740Z,1152
2017-06-11T14:22:49.670Z,1172
2017-06-11T14:24:02.584Z,1180
2017-06-11T14:25:15.207Z,1200
2017-06-11T14:26:28.137Z,1208
2017-06-11T14:27:40.572Z,1224
2017-06-11T14:28:53.484Z,1244
2017-06-11T14:30:05.910Z,1244
2017-06-11T14:31:18.859Z,1260
2017-06-11T14:32:31.804Z,1264
2017-06-11T14:33:44.832Z,1264
2017-06-11T14:34:57.585Z,1288
2017-06-11T14:36:10.528Z,1280
2017-06-11T14:37:22.951Z,1276
2017-06-11T14:38:35.386Z,1280
2017-06-11T14:39:48.307Z,1276
2017-06-11T14:41:01.423Z,1264
2017-06-11T14:42:13.850Z,1252
2017-06-11T14:43:26.768Z,1240
2017-06-11T14:44:39.682Z,1236
2017-06-11T14:47:19.071Z,1220
2017-06-11T14:48:31.991Z,1220
2017-06-11T14:49:44.916Z,1220
2017-06-11T14:50:57.340Z,1192
2017-06-11T14:52:09.476Z,1164
2017-06-11T14:53:22.389Z,1140
2017-06-11T14:54:35.311Z,1128
2017-06-11T14:55:48.225Z,1116
2017-06-11T14:57:00.652Z,1104
2017-06-11T14:58:13.276Z,1092
2017-06-11T14:59:25.696Z,1088
2017-06-11T15:00:38.607Z,1096
2017-06-11T15:01:51.519Z,1080
2017-06-11T15:03:03.943Z,1068
2017-06-11T15:04:16.367Z,1068
2017-06-11T15:05:29.280Z,1048
2017-06-11T15:06:42.202Z,1044
2017-06-11T15:07:54.626Z,1040
2017-06-11T15:09:07.048Z,1036
2017-06-11T15:10:19.964Z,1032
2017-06-11T15:11:32.386Z,1024
2017-06-11T15:12:44.811Z,1012
2017-06-11T15:13:57.924Z,1004
2017-06-11T15:15:10.346Z,992
2017-06-11T15:16:22.768Z,980
2017-06-11T15:17:35.681Z,960
2017-06-11T15:18:48.594Z,940
2017-06-11T15:20:01.018Z,916
2017-06-11T15:21:13.932Z,888
2017-06-11T15:22:26.848Z,860
2017-06-11T15:23:39.766Z,852
2017-06-11T15:24:52.679Z,840
2017-06-11T15:26:05.594Z,808
2017-06-11T15:27:18.508Z,780
2017-06-11T15:28:30.931Z,760
2017-06-11T15:29:43.831Z,748
2017-06-11T15:30:56.921Z,724
2017-06-11T15:32:09.332Z,708
2017-06-11T15:33:21.740Z,696
2017-06-11T15:34:34.632Z,676
2017-06-11T15:35:47.530Z,652
2017-06-11T15:37:00.429Z,632
2017-06-11T15:38:13.336Z,612
2017-06-11T15:39:26.272Z,604
2017-06-11T15:40:39.164Z,592
2017-06-11T15:41:52.057Z,576
2017-06-11T15:43:04.467Z,576
2017-06-11T15:44:16.868Z,580
2017-06-11T15:45:29.763Z,572
2017-06-11T15:46:42.859Z,560
2017-06-11T15:47:55.759Z,548
2017-06-11T15:49:07.684Z,540
2017-06-11T15:50:20.581Z,536
2017-06-11T15:51:33.475Z,528
2017-06-11T15:52:46.573Z,528
2017-06-11T15:53:58.973Z,532
2017-06-11T15:55:10.889Z,520
2017-06-11T15:56:23.784Z,504
2017-06-11T15:57:36.394Z,504
2017-06-11T15:58:49.288Z,496
2017-06-11T16:00:02.191Z,484
2017-06-11T16:01:14.600Z,468
2017-06-11T16:02:27.494Z,468
2017-06-11T16:03:39.908Z,464
2017-06-11T16:04:52.798Z,460
2017-06-11T16:06:05.205Z,452
2017-06-11T16:07:18.098Z,444
2017-06-11T16:08:30.993Z,440
2017-06-11T16:09:43.397Z,436
2017-06-11T16:10:55.804Z,436
2017-06-11T16:12:08.209Z,440
2017-06-11T16:13:21.104Z,448
2017-06-11T16:14:34.012Z,456
2017-06-11T16:15:46.436Z,460
2017-06-11T16:16:59.354Z,452
2017-06-11T16:18:12.267Z,440
2017-06-11T16:19:25.182Z,436
2017-06-11T16:20:38.095Z,448
2017-06-11T16:21:51.008Z,456
2017-06-11T16:23:03.437Z,456
2017-06-11T16:24:16.354Z,456
2017-06-11T16:25:29.273Z,448
2017-06-11T16:26:41.706Z,444
2017-06-11T16:27:54.618Z,444
2017-06-11T16:29:07.531Z,440
2017-06-11T16:30:20.160Z,432
2017-06-11T16:31:33.075Z,428
2017-06-11T16:32:45.994Z,424
2017-06-11T16:33:58.911Z,420
2017-06-11T16:35:11.832Z,424
2017-06-11T16:36:24.747Z,432
2017-06-11T16:37:37.176Z,444
2017-06-11T16:38:50.089Z,444
2017-06-11T16:40:03.002Z,452
2017-06-11T16:41:14.932Z,448
2017-06-11T16:42:27.845Z,436
2017-06-11T16:43:40.764Z,420
2017-06-11T16:44:53.690Z,420
2017-06-11T16:46:05.623Z,436
2017-06-11T16:47:18.738Z,456
2017-06-11T16:48:31.649Z,476
2017-06-11T16:49:44.565Z,484
2017-06-11T16:50:56.503Z,468
2017-06-11T16:52:09.628Z,460
2017-06-11T16:53:21.562Z,440
2017-06-11T16:54:34.477Z,424
2017-06-11T16:55:46.905Z,428
2017-06-11T16:56:59.818Z,436
2017-06-11T16:58:11.751Z,432
2017-06-11T16:59:24.658Z,412
2017-06-11T17:00:37.553Z,380